Time;durP1;ratioP1;P1;durP2;ratioP2;P2;SDS_P1;SDS_P2;PMS_P1;PMS_P2;Temp;Humidity;BMP_temperature;BMP_pressure;BME280_temperature;BME280_humidity;BME280_pressure;Samples;Min_cycle;Max_cycle;Signal;HPM_P1;HPM_P2
2021/04/26 00:00:07;;;;;;;4.20;3.03;;;6.90;44.40;;;;;;5114624;28;20179;-35
2021/04/26 00:02:32;;;;;;;8.73;3.27;;;6.90;44.60;;;;;;5114701;28;20457;-35
2021/04/26 00:04:58;;;;;;;6.37;3.80;;;6.90;44.70;;;;;;5114827;28;20452;-34
2021/04/26 00:07:24;;;;;;;5.73;3.17;;;6.80;44.90;;;;;;5114927;28;20183;-34
2021/04/26 00:09:50;;;;;;;4.20;3.40;;;6.80;45.10;;;;;;5114716;28;20176;-35
2021/04/26 00:12:15;;;;;;;3.87;3.17;;;6.80;45.30;;;;;;5114879;28;20242;-35
2021/04/26 00:14:41;;;;;;;7.00;3.87;;;6.80;45.50;;;;;;5114393;28;20401;-35
2021/04/26 00:17:07;;;;;;;6.97;3.87;;;6.80;45.70;;;;;;5114639;28;20168;-35
2021/04/26 00:19:33;;;;;;;4.67;3.07;;;6.70;45.90;;;;;;5114542;28;20168;-36
2021/04/26 00:21:58;;;;;;;5.20;3.80;;;6.70;46.20;;;;;;5114552;28;20191;-34
2021/04/26 00:24:24;;;;;;;6.20;3.93;;;6.70;46.60;;;;;;5104360;28;20492;-35
2021/04/26 00:26:50;;;;;;;8.43;4.00;;;6.70;46.80;;;;;;5099423;28;20577;-35
2021/04/26 00:29:16;;;;;;;4.50;3.30;;;6.70;47.00;;;;;;5100092;28;20601;-35
2021/04/26 00:31:42;;;;;;;4.83;3.33;;;6.70;47.30;;;;;;5100633;28;20199;-34
2021/04/26 00:34:07;;;;;;;6.87;3.30;;;6.70;47.60;;;;;;5100389;28;20871;-33
2021/04/26 00:36:33;;;;;;;5.80;3.73;;;6.60;47.90;;;;;;5100158;28;20550;-34
2021/04/26 00:38:59;;;;;;;5.23;3.47;;;6.60;48.10;;;;;;5100986;28;20212;-35
2021/04/26 00:41:24;;;;;;;5.00;3.33;;;6.60;48.60;;;;;;5100344;28;20198;-35
2021/04/26 00:43:50;;;;;;;5.17;3.67;;;6.50;48.90;;;;;;5100233;28;20414;-35
2021/04/26 00:46:16;;;;;;;4.53;3.10;;;6.40;49.50;;;;;;5100189;28;20176;-34
2021/04/26 00:48:42;;;;;;;6.93;4.00;;;6.40;50.10;;;;;;5099508;28;20220;-35
2021/04/26 00:51:08;;;;;;;6.20;3.93;;;6.50;50.60;;;;;;5100216;28;20188;-35
2021/04/26 00:53:35;;;;;;;6.07;3.93;;;6.40;51.10;;;;;;5100117;28;20478;-34
2021/04/26 00:56:01;;;;;;;5.17;3.60;;;6.50;51.70;;;;;;5099267;28;20409;-33
2021/04/26 00:58:27;;;;;;;4.57;4.00;;;6.40;52.30;;;;;;5100484;28;20428;-34
2021/04/26 01:00:52;;;;;;;9.87;3.77;;;6.40;52.80;;;;;;5100425;28;20770;-35
2021/04/26 01:03:18;;;;;;;5.80;4.10;;;6.40;53.40;;;;;;5099636;28;20870;-34
2021/04/26 01:05:44;;;;;;;6.63;3.80;;;6.40;54.10;;;;;;5100076;28;20191;-35
2021/04/26 01:08:10;;;;;;;5.13;3.73;;;6.30;54.80;;;;;;5099685;28;20554;-35
2021/04/26 01:10:36;;;;;;;11.87;4.20;;;6.20;55.70;;;;;;5100681;28;20274;-35
2021/04/26 01:13:39;;;;;;;6.57;3.80;;;6.20;56.60;;;;;;5101175;28;20481;-35
2021/04/26 01:16:21;;;;;;;7.00;4.03;;;6.10;57.50;;;;;;5100287;28;20815;-36
2021/04/26 01:19:14;;;;;;;6.50;4.03;;;6.10;58.10;;;;;;5099778;28;20802;-35
2021/04/26 01:22:02;;;;;;;5.07;3.43;;;6.20;58.60;;;;;;5100145;28;20471;-41
2021/04/26 01:24:46;;;;;;;5.70;4.43;;;6.10;59.30;;;;;;5099893;28;20477;-42
2021/04/26 01:27:49;;;;;;;7.33;3.30;;;6.10;59.80;;;;;;5099773;28;20414;-42
2021/04/26 01:30:36;;;;;;;9.40;4.20;;;6.10;60.70;;;;;;5099069;28;20438;-42
2021/04/26 01:33:05;;;;;;;6.93;3.97;;;6.20;61.00;;;;;;5099937;28;20470;-42
2021/04/26 01:35:31;;;;;;;7.57;4.70;;;6.20;61.90;;;;;;5097552;28;20569;-41
2021/04/26 01:38:24;;;;;;;10.40;5.50;;;6.20;62.60;;;;;;5099633;28;20473;-42
2021/04/26 01:40:51;;;;;;;10.07;4.63;;;6.20;63.70;;;;;;5085601;28;20422;-43
2021/04/26 01:43:22;;;;;;;4.43;4.03;;;6.10;65.10;;;;;;5099805;28;20429;-42
2021/04/26 01:45:50;;;;;;;4.67;3.93;;;6.10;66.40;;;;;;5098848;28;20411;-43
2021/04/26 01:48:16;;;;;;;7.20;4.80;;;6.00;67.40;;;;;;5098511;28;20537;-42
2021/04/26 01:50:42;;;;;;;5.07;4.40;;;6.00;68.40;;;;;;5099446;28;20841;-42
2021/04/26 01:53:08;;;;;;;12.70;4.67;;;5.90;69.00;;;;;;5081346;28;20470;-42
2021/04/26 01:55:34;;;;;;;6.30;4.97;;;6.00;69.80;;;;;;5098463;28;20739;-41
2021/04/26 01:58:01;;;;;;;11.80;4.63;;;5.90;71.20;;;;;;5099188;28;20422;-41
2021/04/26 02:00:31;;;;;;;5.37;4.30;;;6.00;71.10;;;;;;5098612;28;20502;-43
2021/04/26 02:02:58;;;;;;;6.60;4.50;;;5.90;71.50;;;;;;5099241;28;20912;-43
2021/04/26 02:05:25;;;;;;;5.90;5.13;;;5.90;72.00;;;;;;5080824;28;20415;-42
2021/04/26 02:07:52;;;;;;;7.70;4.67;;;5.90;72.60;;;;;;5097854;28;20944;-42
2021/04/26 02:10:20;;;;;;;7.10;5.33;;;5.90;73.40;;;;;;5098057;28;20468;-42
2021/04/26 02:12:46;;;;;;;6.10;4.60;;;5.80;73.80;;;;;;5098757;28;20478;-41
2021/04/26 02:15:16;;;;;;;6.73;5.10;;;5.70;75.30;;;;;;5098695;28;20410;-42
2021/04/26 02:17:43;;;;;;;6.67;4.83;;;5.70;75.90;;;;;;5098865;28;20530;-40
2021/04/26 02:20:11;;;;;;;5.70;4.83;;;5.70;75.90;;;;;;5098742;28;20403;-42
2021/04/26 02:22:36;;;;;;;8.63;5.50;;;5.70;75.90;;;;;;5098983;28;20430;-42
2021/04/26 02:25:05;;;;;;;6.50;5.23;;;5.70;75.90;;;;;;5098460;28;20524;-42
2021/04/26 02:27:31;;;;;;;6.03;4.50;;;5.70;76.00;;;;;;5098904;28;20514;-41
2021/04/26 02:29:57;;;;;;;7.00;4.77;;;5.70;76.90;;;;;;5099015;28;20419;-40
2021/04/26 02:32:37;;;;;;;6.97;4.90;;;5.70;77.20;;;;;;5098327;28;20466;-42
2021/04/26 02:35:04;;;;;;;7.70;5.60;;;5.70;77.60;;;;;;5099199;28;20731;-42
2021/04/26 02:37:55;;;;;;;6.77;5.30;;;5.60;77.60;;;;;;5097571;28;20466;-42
2021/04/26 02:40:22;;;;;;;6.50;5.50;;;5.60;77.60;;;;;;5088988;28;20452;-43
2021/04/26 02:42:50;;;;;;;7.03;5.27;;;5.60;78.10;;;;;;5097567;28;20422;-43
2021/04/26 02:45:24;;;;;;;10.90;5.87;;;5.60;78.20;;;;;;5097937;28;20406;-42
2021/04/26 02:47:50;;;;;;;6.77;5.60;;;5.60;78.40;;;;;;5097486;28;20430;-42
2021/04/26 02:50:20;;;;;;;9.30;5.40;;;5.50;78.50;;;;;;5097376;28;20438;-42
2021/04/26 02:52:49;;;;;;;8.87;5.47;;;5.50;78.80;;;;;;5098376;28;20500;-42
2021/04/26 02:55:16;;;;;;;6.97;5.03;;;5.50;79.40;;;;;;5097412;28;20406;-43
2021/04/26 02:57:42;;;;;;;5.60;5.00;;;5.50;79.70;;;;;;5097519;28;20434;-42
2021/04/26 03:00:11;;;;;;;9.67;6.27;;;5.40;79.90;;;;;;5097120;28;20560;-41
2021/04/26 03:02:38;;;;;;;8.97;5.70;;;5.40;80.40;;;;;;5098295;28;20854;-42
2021/04/26 03:05:06;;;;;;;8.47;5.93;;;5.30;80.70;;;;;;5096968;28;20410;-42
2021/04/26 03:07:34;;;;;;;8.13;5.77;;;5.30;81.00;;;;;;5097991;28;20429;-42
2021/04/26 03:10:01;;;;;;;9.63;6.53;;;5.30;81.10;;;;;;5097952;28;20695;-40
2021/04/26 03:12:34;;;;;;;8.07;6.10;;;5.20;81.10;;;;;;5097666;28;20482;-40
2021/04/26 03:15:01;;;;;;;8.27;6.30;;;5.20;81.70;;;;;;5097226;28;20497;-42
2021/04/26 03:17:27;;;;;;;8.00;5.87;;;5.10;81.80;;;;;;5097994;28;20426;-42
2021/04/26 03:19:53;;;;;;;8.03;6.27;;;5.10;82.30;;;;;;5097287;28;20479;-41
2021/04/26 03:22:19;;;;;;;9.60;6.77;;;5.10;82.40;;;;;;5079265;28;20758;-42
2021/04/26 03:24:45;;;;;;;7.50;6.30;;;5.10;82.50;;;;;;5098046;28;20859;-43
2021/04/26 03:27:11;;;;;;;6.60;6.00;;;5.10;82.50;;;;;;5098021;28;20517;-42
2021/04/26 03:29:37;;;;;;;10.97;6.73;;;5.00;82.60;;;;;;5097602;28;20272;-42
2021/04/26 03:32:04;;;;;;;14.60;7.77;;;5.00;82.90;;;;;;5097710;28;20481;-42
2021/04/26 03:34:31;;;;;;;7.67;6.90;;;5.00;83.10;;;;;;5097182;28;20414;-42
2021/04/26 03:36:57;;;;;;;8.10;6.27;;;5.00;83.10;;;;;;5096619;28;20465;-42
2021/04/26 03:39:23;;;;;;;9.67;7.80;;;5.00;83.10;;;;;;5096596;28;20776;-42
2021/04/26 03:41:49;;;;;;;11.37;6.30;;;5.00;83.20;;;;;;5079966;28;20538;-40
2021/04/26 03:44:17;;;;;;;10.37;7.90;;;5.00;84.00;;;;;;5096569;28;20749;-42
2021/04/26 03:47:00;;;;;;;8.40;7.37;;;5.00;83.20;;;;;;5078934;28;20446;-41
2021/04/26 03:49:26;;;;;;;12.70;7.20;;;4.90;82.90;;;;;;5097266;28;20438;-41
2021/04/26 03:51:52;;;;;;;9.33;7.20;;;4.90;83.30;;;;;;5096594;28;20583;-42
2021/04/26 03:54:18;;;;;;;9.30;6.70;;;4.90;83.40;;;;;;5097619;28;20418;-42
2021/04/26 03:56:44;;;;;;;7.37;6.30;;;4.90;83.50;;;;;;5097534;28;20431;-42
2021/04/26 03:59:10;;;;;;;11.13;7.17;;;4.80;83.80;;;;;;5098120;28;20684;-42
2021/04/26 04:01:36;;;;;;;8.90;7.47;;;4.80;83.90;;;;;;5101455;28;20173;-42
2021/04/26 04:04:03;;;;;;;8.37;6.50;;;4.70;83.90;;;;;;5100154;28;20411;-41
2021/04/26 04:06:31;;;;;;;9.03;6.80;;;4.70;84.00;;;;;;5100674;28;20489;-41
2021/04/26 04:09:00;;;;;;;8.63;6.40;;;4.70;83.90;;;;;;5099888;28;20406;-39
2021/04/26 04:11:26;;;;;;;10.50;8.23;;;4.70;84.10;;;;;;5098635;28;20587;-42
2021/04/26 04:13:52;;;;;;;11.63;8.03;;;4.70;84.10;;;;;;5099989;28;20454;-41
2021/04/26 04:16:18;;;;;;;9.63;6.73;;;4.60;84.30;;;;;;5099244;28;20476;-42
2021/04/26 04:18:44;;;;;;;9.60;7.20;;;4.60;84.30;;;;;;5099737;28;20576;-42
2021/04/26 04:21:09;;;;;;;9.00;7.13;;;4.60;84.20;;;;;;5100098;28;20445;-40
2021/04/26 04:23:35;;;;;;;9.10;7.30;;;4.60;84.20;;;;;;5100356;28;20560;-42
2021/04/26 04:26:01;;;;;;;10.80;7.40;;;4.60;84.10;;;;;;5100424;28;20172;-42
2021/04/26 04:28:26;;;;;;;14.30;8.57;;;4.60;84.00;;;;;;5100748;28;20191;-40
2021/04/26 04:30:52;;;;;;;9.03;7.30;;;4.60;83.90;;;;;;5099171;28;20410;-41
2021/04/26 04:33:17;;;;;;;9.13;7.03;;;4.60;83.90;;;;;;5100307;28;20212;-42
2021/04/26 04:35:43;;;;;;;10.80;7.67;;;4.60;84.00;;;;;;5100251;28;20206;-40
2021/04/26 04:38:09;;;;;;;10.17;6.70;;;4.60;83.70;;;;;;5100292;28;20271;-42
2021/04/26 04:40:35;;;;;;;9.10;6.90;;;4.60;83.80;;;;;;5100291;28;20534;-42
2021/04/26 04:43:00;;;;;;;10.70;7.33;;;4.60;83.50;;;;;;5099843;28;20184;-42
2021/04/26 04:45:26;;;;;;;7.80;7.03;;;4.70;83.40;;;;;;5099921;28;20259;-42
2021/04/26 04:47:52;;;;;;;8.70;7.03;;;4.70;83.30;;;;;;5100338;28;20580;-41
2021/04/26 04:50:17;;;;;;;11.83;7.00;;;4.70;83.00;;;;;;5099637;28;20703;-41
2021/04/26 04:52:43;;;;;;;7.50;6.37;;;4.70;82.90;;;;;;5099748;28;20223;-41
2021/04/26 04:55:10;;;;;;;7.63;6.40;;;4.70;82.80;;;;;;5100115;28;20179;-42
2021/04/26 04:57:35;;;;;;;8.40;7.30;;;4.70;82.70;;;;;;5100427;28;20208;-42
2021/04/26 05:00:03;;;;;;;11.17;7.63;;;4.70;82.60;;;;;;5098326;28;20418;-42
2021/04/26 05:02:28;;;;;;;10.53;8.13;;;4.70;82.60;;;;;;5098176;28;20265;-42
2021/04/26 05:04:54;;;;;;;8.67;6.37;;;4.80;82.20;;;;;;5098485;28;20406;-42
2021/04/26 05:07:20;;;;;;;7.93;7.00;;;4.80;82.00;;;;;;5097666;28;20199;-42
2021/04/26 05:09:45;;;;;;;7.80;7.00;;;4.90;81.90;;;;;;5097396;28;20819;-39
2021/04/26 05:12:11;;;;;;;9.13;6.53;;;4.90;81.30;;;;;;5098137;28;20232;-42
2021/04/26 05:14:39;;;;;;;9.70;7.07;;;5.00;80.90;;;;;;5098364;28;20188;-42
2021/04/26 05:17:04;;;;;;;13.57;8.50;;;5.00;80.80;;;;;;5097904;28;20487;-41
2021/04/26 05:19:30;;;;;;;9.27;7.63;;;5.00;81.40;;;;;;5097129;28;20414;-42
2021/04/26 05:21:56;;;;;;;12.03;7.87;;;5.10;81.20;;;;;;5097649;28;20184;-42
2021/04/26 05:24:21;;;;;;;10.60;7.80;;;5.20;81.10;;;;;;5097671;28;20542;-42
2021/04/26 05:26:47;;;;;;;8.77;7.53;;;5.30;81.00;;;;;;5099271;28;20527;-41
2021/04/26 05:29:13;;;;;;;7.90;6.87;;;5.40;80.50;;;;;;5098951;28;20176;-41
2021/04/26 05:31:38;;;;;;;7.90;6.80;;;5.50;79.60;;;;;;5098489;28;20595;-42
2021/04/26 05:34:04;;;;;;;10.03;6.80;;;5.60;78.40;;;;;;5097591;28;20180;-42
2021/04/26 05:36:29;;;;;;;8.03;6.57;;;5.60;78.00;;;;;;5096537;28;20274;-42
2021/04/26 05:38:56;;;;;;;8.47;6.17;;;5.70;76.80;;;;;;5097795;28;20169;-40
2021/04/26 05:41:22;;;;;;;7.57;6.70;;;5.70;76.30;;;;;;5098508;28;20233;-42
2021/04/26 05:43:48;;;;;;;7.40;6.70;;;5.80;75.70;;;;;;5099034;28;20410;-42
2021/04/26 05:46:14;;;;;;;7.37;6.37;;;5.90;75.40;;;;;;5097497;28;20176;-42
2021/04/26 05:48:41;;;;;;;13.33;6.43;;;6.00;75.30;;;;;;5098869;28;20176;-42
2021/04/26 05:51:06;;;;;;;11.23;6.40;;;6.10;74.30;;;;;;5098298;28;20415;-42
2021/04/26 05:53:32;;;;;;;6.43;5.47;;;6.30;73.70;;;;;;5097703;28;20477;-43
2021/04/26 05:55:58;;;;;;;6.73;5.43;;;6.50;72.30;;;;;;5097360;28;20188;-43
2021/04/26 05:58:24;;;;;;;7.70;6.20;;;6.60;71.80;;;;;;5097609;28;20189;-42
2021/04/26 06:00:50;;;;;;;9.30;6.20;;;6.80;70.90;;;;;;5097699;28;20578;-42
2021/04/26 06:03:15;;;;;;;9.00;7.00;;;6.80;70.40;;;;;;5098651;28;20531;-40
2021/04/26 06:05:41;;;;;;;8.93;6.40;;;7.00;69.80;;;;;;5098414;28;20253;-41
2021/04/26 06:08:07;;;;;;;8.10;7.10;;;7.20;69.10;;;;;;5098421;28;20176;-40
2021/04/26 06:10:33;;;;;;;8.03;6.40;;;7.50;67.90;;;;;;5097285;28;20172;-40
2021/04/26 06:12:58;;;;;;;10.10;6.37;;;7.70;66.60;;;;;;5095632;28;20478;-39
2021/04/26 06:15:25;;;;;;;7.40;6.67;;;7.90;65.60;;;;;;5096747;28;20520;-41
2021/04/26 06:17:52;;;;;;;8.20;6.77;;;8.10;64.60;;;;;;5095366;28;20463;-42
2021/04/26 06:20:18;;;;;;;7.20;6.47;;;8.10;63.50;;;;;;5096007;28;20735;-41
2021/04/26 06:22:43;;;;;;;8.40;5.93;;;8.10;62.70;;;;;;5095356;28;20473;-40
2021/04/26 06:25:10;;;;;;;10.07;6.00;;;8.30;62.10;;;;;;5097199;28;20418;-41
2021/04/26 06:27:36;;;;;;;10.23;6.03;;;8.50;60.50;;;;;;5096269;28;20512;-41
2021/04/26 06:30:03;;;;;;;9.57;6.87;;;8.70;59.80;;;;;;5096578;28;20422;-39
2021/04/26 06:32:29;;;;;;;11.33;7.87;;;8.60;59.90;;;;;;5078953;28;20814;-41
2021/04/26 06:34:55;;;;;;;8.30;7.37;;;8.60;60.00;;;;;;5098050;28;20446;-42
2021/04/26 06:37:20;;;;;;;7.27;5.90;;;8.60;60.70;;;;;;5098008;28;20181;-41
2021/04/26 06:39:46;;;;;;;7.00;6.30;;;8.80;59.50;;;;;;5097412;28;20414;-42
2021/04/26 06:42:12;;;;;;;7.00;6.30;;;9.00;59.40;;;;;;5097623;28;20181;-39
2021/04/26 06:44:38;;;;;;;9.23;7.20;;;9.30;58.30;;;;;;5097290;28;20192;-42
2021/04/26 06:47:05;;;;;;;8.90;7.17;;;9.50;57.20;;;;;;5096279;28;20214;-42
2021/04/26 06:49:31;;;;;;;6.90;6.20;;;9.80;56.70;;;;;;5097555;28;20429;-42
2021/04/26 06:51:56;;;;;;;8.23;6.87;;;10.00;55.10;;;;;;5098057;28;20446;-41
2021/04/26 06:54:22;;;;;;;11.97;6.67;;;10.20;55.30;;;;;;5097456;28;20164;-42
2021/04/26 06:56:48;;;;;;;8.17;6.70;;;10.40;54.00;;;;;;5097425;28;20235;-41
2021/04/26 06:59:14;;;;;;;7.47;6.67;;;10.50;53.10;;;;;;5097716;28;20502;-40
2021/04/26 07:01:39;;;;;;;10.37;6.73;;;10.60;53.50;;;;;;5096840;28;20179;-41
2021/04/26 07:04:08;;;;;;;6.23;5.60;;;10.50;53.50;;;;;;5097460;28;20172;-41
2021/04/26 07:06:34;;;;;;;10.73;6.43;;;10.80;53.00;;;;;;5097148;28;20501;-41
2021/04/26 07:08:59;;;;;;;10.57;6.57;;;11.20;52.30;;;;;;5097401;28;20509;-39
2021/04/26 07:11:25;;;;;;;8.33;5.97;;;11.50;52.20;;;;;;5097235;28;20172;-41
2021/04/26 07:13:50;;;;;;;7.00;6.30;;;11.70;50.20;;;;;;5096109;28;20470;-39
2021/04/26 07:16:16;;;;;;;11.00;6.30;;;11.90;50.30;;;;;;5095219;28;20255;-39
2021/04/26 07:18:44;;;;;;;7.17;6.47;;;12.10;50.00;;;;;;5096128;28;20183;-42
2021/04/26 07:21:10;;;;;;;8.90;7.20;;;12.10;48.80;;;;;;5096839;28;20211;-41
2021/04/26 07:23:36;;;;;;;9.77;6.80;;;12.30;48.60;;;;;;5095930;28;20440;-41
2021/04/26 07:26:02;;;;;;;8.30;5.50;;;12.30;47.70;;;;;;5097324;28;20565;-40
2021/04/26 07:28:27;;;;;;;9.73;7.10;;;12.50;47.10;;;;;;5096703;28;20184;-41
2021/04/26 07:30:54;;;;;;;7.57;6.70;;;12.60;46.70;;;;;;5096978;28;20180;-41
2021/04/26 07:33:19;;;;;;;7.90;5.77;;;12.50;47.40;;;;;;5096678;28;20211;-42
2021/04/26 07:35:45;;;;;;;8.83;6.90;;;12.60;47.10;;;;;;5099379;28;20415;-42
2021/04/26 07:38:10;;;;;;;7.07;6.37;;;12.80;46.00;;;;;;5099869;28;20198;-43
2021/04/26 07:40:37;;;;;;;9.10;6.53;;;13.10;46.20;;;;;;5100251;28;20176;-42
2021/04/26 07:43:06;;;;;;;8.07;7.20;;;13.20;45.00;;;;;;5100822;28;20531;-42
2021/04/26 07:45:31;;;;;;;11.23;6.13;;;13.20;44.50;;;;;;5083028;28;20430;-42
2021/04/26 07:47:57;;;;;;;6.97;5.93;;;13.30;45.30;;;;;;5099856;28;20434;-42
2021/04/26 07:50:24;;;;;;;7.77;6.27;;;13.50;45.60;;;;;;5101191;28;20421;-42
2021/04/26 07:52:50;;;;;;;8.43;5.80;;;13.70;46.30;;;;;;5100922;28;20574;-43
2021/04/26 07:55:15;;;;;;;11.10;7.73;;;14.00;46.40;;;;;;5100143;28;20497;-42
2021/04/26 07:57:41;;;;;;;9.50;6.27;;;14.00;44.70;;;;;;5100597;28;20422;-42
2021/04/26 08:00:08;;;;;;;8.70;6.17;;;14.20;44.70;;;;;;5098313;28;20237;-43
2021/04/26 08:02:34;;;;;;;8.90;7.03;;;14.50;42.90;;;;;;5098529;28;20184;-43
2021/04/26 08:05:00;;;;;;;9.07;7.10;;;14.70;42.30;;;;;;5096429;28;20429;-43
2021/04/26 08:07:25;;;;;;;11.80;6.73;;;14.50;41.80;;;;;;5098417;28;20324;-42
2021/04/26 08:09:51;;;;;;;8.83;7.10;;;14.60;43.60;;;;;;5099767;28;20188;-41
2021/04/26 08:12:18;;;;;;;7.00;6.30;;;14.90;42.30;;;;;;5098854;28;20285;-42
2021/04/26 08:14:44;;;;;;;8.00;6.50;;;15.50;42.90;;;;;;5100257;28;20415;-42
2021/04/26 08:17:09;;;;;;;9.07;6.97;;;16.10;42.30;;;;;;5101041;28;20441;-43
2021/04/26 08:19:35;;;;;;;9.87;6.33;;;16.70;41.70;;;;;;5099120;28;20550;-44
2021/04/26 08:22:01;;;;;;;4.73;4.33;;;17.20;40.60;;;;;;5100850;28;20272;-43
2021/04/26 08:24:28;;;;;;;6.37;4.97;;;18.00;42.90;;;;;;5101611;28;20421;-44
2021/04/26 08:26:57;;;;;;;5.47;4.10;;;18.80;41.80;;;;;;5100614;28;20185;-42
2021/04/26 08:29:23;;;;;;;6.90;6.20;;;19.50;42.20;;;;;;5100332;28;20666;-44
2021/04/26 08:31:50;;;;;;;5.83;5.33;;;20.00;37.70;;;;;;5099430;28;20942;-43
2021/04/26 08:34:15;;;;;;;5.50;5.00;;;19.90;36.40;;;;;;5100703;28;20407;-44
2021/04/26 08:36:41;;;;;;;5.87;5.27;;;20.20;36.70;;;;;;5099497;28;20521;-43
2021/04/26 08:39:07;;;;;;;6.57;5.97;;;20.50;35.40;;;;;;5099423;28;20172;-44
2021/04/26 08:41:33;;;;;;;7.43;6.67;;;20.60;33.90;;;;;;5099161;28;20184;-43
2021/04/26 08:43:58;;;;;;;7.10;6.37;;;20.00;33.30;;;;;;5099701;28;20480;-44
2021/04/26 08:46:25;;;;;;;8.73;6.27;;;19.50;33.40;;;;;;5099386;28;20414;-43
2021/04/26 08:48:50;;;;;;;7.20;6.50;;;19.00;34.00;;;;;;5098966;28;20176;-42
2021/04/26 08:51:16;;;;;;;8.30;7.10;;;18.60;35.40;;;;;;5099057;28;20433;-43
2021/04/26 08:53:41;;;;;;;8.07;5.60;;;18.20;34.20;;;;;;5099447;28;20212;-44
2021/04/26 08:56:09;;;;;;;7.63;5.77;;;18.10;35.30;;;;;;5098674;28;20510;-44
2021/04/26 08:58:35;;;;;;;7.33;5.90;;;18.40;36.30;;;;;;5096712;28;20271;-43
2021/04/26 09:01:01;;;;;;;10.40;6.03;;;18.80;35.40;;;;;;5096569;28;20502;-44
2021/04/26 09:03:34;;;;;;;7.50;4.83;;;19.10;36.20;;;;;;5099281;28;20707;-44
2021/04/26 09:06:00;;;;;;;7.63;6.10;;;19.60;36.30;;;;;;5099757;28;20470;-45
2021/04/26 09:08:28;;;;;;;6.90;5.67;;;20.20;34.90;;;;;;5099824;28;20438;-44
2021/04/26 09:11:06;;;;;;;10.20;6.87;;;20.40;34.40;;;;;;5098711;28;20442;-44
2021/04/26 09:13:39;;;;;;;7.47;6.07;;;20.90;33.50;;;;;;5097854;28;20452;-44
2021/04/26 09:16:09;;;;;;;9.50;6.40;;;21.10;32.20;;;;;;5098244;28;20180;-44
2021/04/26 09:19:00;;;;;;;7.60;6.27;;;21.20;31.70;;;;;;5095812;28;20453;-44
2021/04/26 09:21:29;;;;;;;7.13;6.10;;;21.40;32.50;;;;;;5097238;28;20430;-44
2021/04/26 09:24:14;;;;;;;6.50;5.87;;;22.00;32.80;;;;;;5096713;28;20399;-43
2021/04/26 09:26:40;;;;;;;11.60;6.00;;;22.90;31.50;;;;;;5098505;28;20847;-44
2021/04/26 09:29:21;;;;;;;6.57;5.87;;;23.30;30.50;;;;;;5098504;28;20733;-45
2021/04/26 09:32:10;;;;;;;8.03;6.17;;;24.00;31.60;;;;;;5096401;28;20418;-44
2021/04/26 09:34:40;;;;;;;8.00;5.87;;;24.90;31.10;;;;;;5097520;28;20947;-44
2021/04/26 09:37:08;;;;;;;6.27;5.67;;;25.60;28.90;;;;;;5097542;28;20509;-44
2021/04/26 09:39:39;;;;;;;6.63;6.13;;;26.20;28.20;;;;;;5098437;28;20855;-45
2021/04/26 09:42:06;;;;;;;7.50;6.80;;;26.60;29.20;;;;;;5098350;28;20433;-44
2021/04/26 09:44:31;;;;;;;7.83;6.20;;;27.40;28.00;;;;;;5098590;28;20759;-44
2021/04/26 09:46:57;;;;;;;6.63;5.93;;;27.80;26.90;;;;;;5098151;28;20402;-44
2021/04/26 09:49:27;;;;;;;10.80;6.77;;;27.80;26.70;;;;;;5079755;28;20184;-44
2021/04/26 09:51:55;;;;;;;6.73;6.03;;;27.80;27.00;;;;;;5097811;28;20452;-36
2021/04/26 09:54:54;;;;;;;7.23;6.53;;;27.50;27.30;;;;;;5096582;28;20435;-37
2021/04/26 09:57:19;;;;;;;8.88;6.57;;;27.70;26.70;;;;;;5041466;28;20405;-36
2021/04/26 09:59:46;;;;;;;7.60;6.93;;;27.70;26.20;;;;;;5096758;28;20462;-37
2021/04/26 10:02:11;;;;;;;7.20;5.73;;;28.00;26.00;;;;;;5096034;28;20192;-37
2021/04/26 10:04:37;;;;;;;6.90;6.20;;;28.10;27.20;;;;;;5097426;28;20687;-36
2021/04/26 10:07:03;;;;;;;6.57;6.00;;;28.70;26.30;;;;;;5097669;28;20250;-37
2021/04/26 10:09:29;;;;;;;7.00;6.40;;;29.50;26.20;;;;;;5095629;28;20187;-37
2021/04/26 10:11:55;;;;;;;7.90;6.90;;;30.20;25.20;;;;;;5096573;28;20863;-36
2021/04/26 10:14:21;;;;;;;7.57;6.87;;;29.90;24.90;;;;;;5096167;28;20445;-37
2021/04/26 10:17:02;;;;;;;7.13;6.53;;;29.70;24.40;;;;;;5096611;28;20458;-36
2021/04/26 10:19:45;;;;;;;8.10;7.40;;;29.30;24.50;;;;;;5097983;28;20438;-36
2021/04/26 10:22:11;;;;;;;9.03;6.33;;;29.40;24.00;;;;;;5079470;28;20434;-36
2021/04/26 10:24:51;;;;;;;6.80;6.13;;;28.90;25.10;;;;;;5096518;28;20437;-36
2021/04/26 10:27:34;;;;;;;7.03;6.43;;;29.50;25.10;;;;;;5096122;28;20266;-36
2021/04/26 10:30:18;;;;;;;7.43;6.73;;;30.00;24.60;;;;;;5097965;28;20422;-37
2021/04/26 10:32:58;;;;;;;7.40;6.70;;;29.20;24.90;;;;;;5097129;28;20464;-36
2021/04/26 10:35:25;;;;;;;8.27;6.63;;;29.90;25.00;;;;;;5095175;28;20778;-33
2021/04/26 10:37:51;;;;;;;7.40;6.53;;;28.90;24.70;;;;;;5096260;28;20824;-36
2021/04/26 10:40:21;;;;;;;7.87;7.07;;;29.20;24.40;;;;;;5094293;28;20410;-35
2021/04/26 10:42:48;;;;;;;7.70;6.37;;;29.10;24.80;;;;;;5095436;28;20435;-35
2021/04/26 10:45:13;;;;;;;7.50;6.80;;;29.70;24.90;;;;;;5094008;28;20414;-35
2021/04/26 10:47:43;;;;;;;7.53;6.83;;;30.60;24.90;;;;;;5094624;28;20458;-36
2021/04/26 10:50:09;;;;;;;7.83;7.03;;;31.30;24.50;;;;;;5095180;28;20168;-36
2021/04/26 10:52:39;;;;;;;8.50;6.80;;;31.60;24.50;;;;;;5095323;28;20443;-36
2021/04/26 10:55:11;;;;;;;6.60;6.07;;;31.40;23.80;;;;;;5095975;28;20196;-41
2021/04/26 10:57:39;;;;;;;7.80;7.10;;;31.40;23.90;;;;;;5095061;28;20679;-41
2021/04/26 11:00:24;;;;;;;7.83;7.10;;;31.60;23.20;;;;;;5096699;28;20403;-42
2021/04/26 11:03:11;;;;;;;7.63;6.77;;;31.50;23.70;;;;;;5094683;28;21012;-40
2021/04/26 11:05:38;;;;;;;8.23;7.50;;;30.70;23.20;;;;;;5082310;28;20400;-42
2021/04/26 11:08:18;;;;;;;7.80;6.70;;;31.00;22.50;;;;;;5096311;28;20404;-43
2021/04/26 11:10:53;;;;;;;7.63;6.83;;;29.40;23.30;;;;;;5095423;28;20422;-42
2021/04/26 11:13:30;;;;;;;7.63;6.93;;;30.20;23.30;;;;;;5096590;28;20448;-42
2021/04/26 11:16:10;;;;;;;7.63;6.13;;;31.20;23.00;;;;;;5093400;28;20411;-40
2021/04/26 11:18:41;;;;;;;7.20;6.50;;;30.80;22.90;;;;;;5095470;28;20461;-42
2021/04/26 11:21:08;;;;;;;8.00;7.30;;;30.90;23.80;;;;;;5095237;28;20446;-42
2021/04/26 11:23:48;;;;;;;7.43;6.73;;;31.40;23.60;;;;;;5095088;28;20409;-42
2021/04/26 11:26:16;;;;;;;7.00;6.40;;;32.40;23.10;;;;;;5096035;28;20392;-40
2021/04/26 11:29:01;;;;;;;9.20;8.40;;;32.50;22.20;;;;;;5094665;28;20404;-42
2021/04/26 11:31:41;;;;;;;7.43;6.83;;;31.50;22.50;;;;;;5095391;28;20402;-43
2021/04/26 11:34:16;;;;;;;8.90;7.47;;;31.90;23.30;;;;;;5096761;28;20556;-41
2021/04/26 11:37:05;;;;;;;7.60;6.90;;;31.80;23.30;;;;;;5095386;28;20405;-43
2021/04/26 11:39:40;;;;;;;7.37;6.67;;;31.80;22.40;;;;;;5083911;28;20418;-42
2021/04/26 11:42:06;;;;;;;8.23;6.93;;;31.70;22.60;;;;;;5095122;28;20657;-43
2021/04/26 11:44:34;;;;;;;8.43;7.73;;;32.10;22.40;;;;;;5096153;28;20509;-42
2021/04/26 11:47:11;;;;;;;8.17;7.37;;;32.00;21.80;;;;;;5095044;28;20747;-43
2021/04/26 11:49:44;;;;;;;7.77;6.97;;;30.70;22.70;;;;;;5096600;28;20503;-43
2021/04/26 11:52:17;;;;;;;9.00;8.20;;;29.70;23.40;;;;;;5095830;28;20483;-41
2021/04/26 11:54:48;;;;;;;7.00;6.40;;;30.00;23.40;;;;;;5095984;28;20700;-43
2021/04/26 11:57:24;;;;;;;9.73;7.23;;;31.00;23.20;;;;;;5095664;28;20403;-43
2021/04/26 12:00:01;;;;;;;8.13;7.33;;;31.50;22.90;;;;;;5095113;28;20397;-43
2021/04/26 12:02:27;;;;;;;7.10;6.50;;;30.90;22.70;;;;;;5095029;28;20539;-43
2021/04/26 12:04:53;;;;;;;6.93;6.30;;;30.50;23.20;;;;;;5095695;28;20442;-43
2021/04/26 12:07:19;;;;;;;8.20;6.87;;;31.20;23.30;;;;;;5095478;28;20414;-42
2021/04/26 12:09:53;;;;;;;6.33;5.80;;;31.60;22.40;;;;;;5095598;28;20445;-41
2021/04/26 12:12:23;;;;;;;6.60;6.00;;;32.20;22.60;;;;;;5095792;28;20281;-43
2021/04/26 12:15:05;;;;;;;9.00;8.10;;;33.00;22.20;;;;;;5096275;28;20456;-43
2021/04/26 12:17:33;;;;;;;9.67;8.73;;;32.90;21.00;;;;;;5095098;28;20562;-42
2021/04/26 12:20:00;;;;;;;10.70;9.73;;;32.50;21.10;;;;;;5095870;28;20695;-42
2021/04/26 12:22:32;;;;;;;7.97;7.07;;;31.30;20.80;;;;;;5099210;28;20414;-43
2021/04/26 12:25:01;;;;;;;6.17;5.57;;;30.10;21.60;;;;;;5098162;28;20561;-41
2021/04/26 12:27:28;;;;;;;7.20;6.50;;;29.90;21.30;;;;;;5097363;28;20414;-42
2021/04/26 12:29:54;;;;;;;7.03;6.27;;;30.30;21.50;;;;;;5098900;28;20443;-41
2021/04/26 12:32:24;;;;;;;5.83;5.30;;;30.70;21.40;;;;;;5097895;28;20440;-43
2021/04/26 12:34:59;;;;;;;6.23;5.73;;;30.90;20.70;;;;;;5099655;28;20205;-43
2021/04/26 12:37:30;;;;;;;10.77;6.30;;;31.40;21.60;;;;;;5100163;28;20388;-41
2021/04/26 12:40:31;;;;;;;7.10;6.10;;;31.50;22.10;;;;;;5100521;28;20493;-41
2021/04/26 12:42:56;;;;;;;6.10;5.60;;;32.00;22.00;;;;;;5099247;28;20429;-43
2021/04/26 12:45:45;;;;;;;6.30;5.70;;;33.40;21.10;;;;;;5100115;28;20407;-43
2021/04/26 12:48:18;;;;;;;6.37;5.87;;;34.00;20.80;;;;;;5099896;28;20588;-43
2021/04/26 12:50:49;;;;;;;5.80;5.27;;;34.40;20.30;;;;;;5098412;28;20414;-43
2021/04/26 12:53:18;;;;;;;6.40;5.90;;;34.60;19.90;;;;;;5082913;28;20473;-43
2021/04/26 12:55:49;;;;;;;5.83;5.40;;;35.00;20.30;;;;;;5098995;28;20392;-44
2021/04/26 12:58:24;;;;;;;7.03;6.43;;;34.90;20.30;;;;;;5097751;28;20846;-42